KLGB/LGB METAR and TAF weather

Enter ICAO airport designator
Station Type Date Time Source
KLGB METAR 2019/04/24 21:53 UTC NOAA

KLGB 242153Z 21009KT 10SM CLR 21/13 A2996 RMK AO2 SLP145 T02060133


Station Type Date Time Source
KLGB Decoded METAR 2019/04/24 21:53 UTC NOAA

LONG BEACH AIRPORT, CA, United States (KLGB) 33-49N 118-09W 10M
Apr 24, 2019 - 05:53 PM EDT / 2019.04.24 2153 UTC
Wind: from the SSW (210 degrees) at 10 MPH (9 KT):0
Visibility: 10 mile(s):0
Sky conditions: clear
Temperature: 69.1 F (20.6 C)
Dew Point: 55.9 F (13.3 C)
Relative Humidity: 62%
Pressure (altimeter): 29.96 in. Hg (1014 hPa)
ob: KLGB 242153Z 21009KT 10SM CLR 21/13 A2996 RMK AO2 SLP145 T02060133
cycle: 22

Station Type Date Time Source
KLGB TAF 2019/04/24 18:48 UTC NOAA

TAF KLGB 241747Z 2418/2518 18005KT P6SM SCT014
FM242000 19008KT P6SM SKC
FM250200 29008KT P6SM SKC
FM250530 VRB03KT P6SM BKN010
FM250900 14004KT 4SM BR OVC006
FM251600 17006KT 6SM BR BKN009

Example: see airport list